sensor_id;sensor_type;location;lat;lon;timestamp;P1;durP1;ratioP1;P2;durP2;ratioP2
6590;SDS011;3331;47.978;7.662;2022-11-20T00:01:17;4.77;;;2.87;;
6590;SDS011;3331;47.978;7.662;2022-11-20T00:03:45;3.33;;;3.03;;
6590;SDS011;3331;47.978;7.662;2022-11-20T00:06:12;4.13;;;2.80;;
6590;SDS011;3331;47.978;7.662;2022-11-20T00:08:39;3.97;;;2.93;;
6590;SDS011;3331;47.978;7.662;2022-11-20T00:11:06;4.43;;;2.87;;
6590;SDS011;3331;47.978;7.662;2022-11-20T00:13:33;3.17;;;2.30;;
6590;SDS011;3331;47.978;7.662;2022-11-20T00:16:00;3.93;;;3.53;;
6590;SDS011;3331;47.978;7.662;2022-11-20T00:18:27;4.70;;;2.73;;
6590;SDS011;3331;47.978;7.662;2022-11-20T00:20:59;3.43;;;2.90;;
6590;SDS011;3331;47.978;7.662;2022-11-20T00:23:26;5.13;;;3.10;;
6590;SDS011;3331;47.978;7.662;2022-11-20T00:25:52;3.63;;;2.30;;
6590;SDS011;3331;47.978;7.662;2022-11-20T00:28:18;4.07;;;2.93;;
6590;SDS011;3331;47.978;7.662;2022-11-20T00:30:45;3.60;;;3.27;;
6590;SDS011;3331;47.978;7.662;2022-11-20T00:33:11;3.30;;;3.00;;
6590;SDS011;3331;47.978;7.662;2022-11-20T00:35:37;5.10;;;3.77;;
6590;SDS011;3331;47.978;7.662;2022-11-20T00:38:05;3.80;;;3.10;;
6590;SDS011;3331;47.978;7.662;2022-11-20T00:40:32;8.40;;;3.27;;
6590;SDS011;3331;47.978;7.662;2022-11-20T00:42:58;4.83;;;3.93;;
6590;SDS011;3331;47.978;7.662;2022-11-20T00:45:24;5.13;;;3.00;;
6590;SDS011;3331;47.978;7.662;2022-11-20T00:47:51;5.87;;;3.13;;
6590;SDS011;3331;47.978;7.662;2022-11-20T00:50:17;3.87;;;3.27;;
6590;SDS011;3331;47.978;7.662;2022-11-20T00:52:43;8.10;;;3.63;;
6590;SDS011;3331;47.978;7.662;2022-11-20T00:55:11;4.80;;;3.27;;
6590;SDS011;3331;47.978;7.662;2022-11-20T00:57:38;3.57;;;3.27;;
6590;SDS011;3331;47.978;7.662;2022-11-20T01:00:05;3.13;;;2.70;;
6590;SDS011;3331;47.978;7.662;2022-11-20T01:02:32;5.47;;;3.77;;
6590;SDS011;3331;47.978;7.662;2022-11-20T01:04:58;5.87;;;3.70;;
6590;SDS011;3331;47.978;7.662;2022-11-20T01:07:25;4.53;;;3.60;;
6590;SDS011;3331;47.978;7.662;2022-11-20T01:09:51;5.83;;;4.20;;
6590;SDS011;3331;47.978;7.662;2022-11-20T01:12:19;3.13;;;2.27;;
6590;SDS011;3331;47.978;7.662;2022-11-20T01:14:46;3.87;;;3.17;;
6590;SDS011;3331;47.978;7.662;2022-11-20T01:17:13;6.27;;;3.00;;
6590;SDS011;3331;47.978;7.662;2022-11-20T01:19:39;6.20;;;3.83;;
6590;SDS011;3331;47.978;7.662;2022-11-20T01:22:05;7.03;;;3.50;;
6590;SDS011;3331;47.978;7.662;2022-11-20T01:24:32;4.90;;;3.50;;
6590;SDS011;3331;47.978;7.662;2022-11-20T01:26:58;5.43;;;3.37;;
6590;SDS011;3331;47.978;7.662;2022-11-20T01:29:26;6.70;;;3.73;;
6590;SDS011;3331;47.978;7.662;2022-11-20T01:31:53;3.73;;;3.00;;
6590;SDS011;3331;47.978;7.662;2022-11-20T01:34:20;5.57;;;3.57;;
6590;SDS011;3331;47.978;7.662;2022-11-20T01:36:47;4.23;;;3.83;;
6590;SDS011;3331;47.978;7.662;2022-11-20T01:39:14;3.33;;;2.97;;
6590;SDS011;3331;47.978;7.662;2022-11-20T01:41:41;5.03;;;3.13;;
6590;SDS011;3331;47.978;7.662;2022-11-20T01:44:45;5.57;;;3.40;;
6590;SDS011;3331;47.978;7.662;2022-11-20T01:47:14;4.47;;;3.00;;
6590;SDS011;3331;47.978;7.662;2022-11-20T01:49:42;5.37;;;2.17;;
6590;SDS011;3331;47.978;7.662;2022-11-20T01:52:11;2.53;;;2.20;;
6590;SDS011;3331;47.978;7.662;2022-11-20T01:54:40;3.90;;;2.73;;
6590;SDS011;3331;47.978;7.662;2022-11-20T01:57:09;5.43;;;3.40;;
6590;SDS011;3331;47.978;7.662;2022-11-20T01:59:36;4.43;;;2.93;;
6590;SDS011;3331;47.978;7.662;2022-11-20T06:10:39;2.03;;;1.73;;
6590;SDS011;3331;47.978;7.662;2022-11-20T07:32:04;3.10;;;1.73;;
6590;SDS011;3331;47.978;7.662;2022-11-20T07:34:31;2.40;;;2.03;;
6590;SDS011;3331;47.978;7.662;2022-11-20T07:37:05;2.00;;;1.63;;
6590;SDS011;3331;47.978;7.662;2022-11-20T07:39:45;1.30;;;1.20;;
6590;SDS011;3331;47.978;7.662;2022-11-20T07:42:20;2.40;;;1.53;;
6590;SDS011;3331;47.978;7.662;2022-11-20T07:45:02;1.20;;;1.10;;
6590;SDS011;3331;47.978;7.662;2022-11-20T07:50:21;1.40;;;1.30;;
6590;SDS011;3331;47.978;7.662;2022-11-20T07:52:47;1.13;;;1.00;;
6590;SDS011;3331;47.978;7.662;2022-11-20T07:55:21;2.80;;;1.97;;
6590;SDS011;3331;47.978;7.662;2022-11-20T07:57:53;1.63;;;1.53;;
6590;SDS011;3331;47.978;7.662;2022-11-20T08:00:20;3.00;;;1.87;;
6590;SDS011;3331;47.978;7.662;2022-11-20T08:02:50;1.67;;;1.40;;
6590;SDS011;3331;47.978;7.662;2022-11-20T08:05:22;1.80;;;1.70;;
6590;SDS011;3331;47.978;7.662;2022-11-20T08:07:50;4.07;;;1.60;;
6590;SDS011;3331;47.978;7.662;2022-11-20T08:10:17;1.77;;;1.17;;
6590;SDS011;3331;47.978;7.662;2022-11-20T08:12:59;2.93;;;1.80;;
6590;SDS011;3331;47.978;7.662;2022-11-20T08:15:47;1.97;;;1.60;;
6590;SDS011;3331;47.978;7.662;2022-11-20T08:18:15;3.43;;;2.60;;
6590;SDS011;3331;47.978;7.662;2022-11-20T08:20:44;4.70;;;2.30;;
6590;SDS011;3331;47.978;7.662;2022-11-20T08:23:18;3.03;;;2.20;;
6590;SDS011;3331;47.978;7.662;2022-11-20T08:25:49;3.30;;;2.07;;
6590;SDS011;3331;47.978;7.662;2022-11-20T08:28:18;1.97;;;1.77;;
6590;SDS011;3331;47.978;7.662;2022-11-20T08:30:49;21.07;;;10.77;;
6590;SDS011;3331;47.978;7.662;2022-11-20T08:33:15;14.00;;;6.77;;
6590;SDS011;3331;47.978;7.662;2022-11-20T08:35:53;7.60;;;3.63;;
6590;SDS011;3331;47.978;7.662;2022-11-20T08:38:40;10.27;;;5.77;;
6590;SDS011;3331;47.978;7.662;2022-11-20T08:41:11;9.13;;;4.70;;
6590;SDS011;3331;47.978;7.662;2022-11-20T08:44:04;6.87;;;3.40;;
6590;SDS011;3331;47.978;7.662;2022-11-20T08:46:34;7.60;;;4.73;;
6590;SDS011;3331;47.978;7.662;2022-11-20T08:49:02;8.37;;;4.57;;
6590;SDS011;3331;47.978;7.662;2022-11-20T08:51:31;4.37;;;2.57;;
6590;SDS011;3331;47.978;7.662;2022-11-20T08:54:05;5.03;;;2.80;;
6590;SDS011;3331;47.978;7.662;2022-11-20T08:56:36;3.70;;;2.33;;
6590;SDS011;3331;47.978;7.662;2022-11-20T08:59:02;3.90;;;2.60;;
6590;SDS011;3331;47.978;7.662;2022-11-20T09:01:35;4.67;;;2.60;;
6590;SDS011;3331;47.978;7.662;2022-11-20T09:04:02;7.50;;;3.30;;
6590;SDS011;3331;47.978;7.662;2022-11-20T09:06:36;5.33;;;3.17;;
6590;SDS011;3331;47.978;7.662;2022-11-20T09:09:03;3.50;;;2.47;;
6590;SDS011;3331;47.978;7.662;2022-11-20T09:11:30;3.43;;;2.00;;
6590;SDS011;3331;47.978;7.662;2022-11-20T09:14:01;3.97;;;2.30;;
6590;SDS011;3331;47.978;7.662;2022-11-20T09:16:31;2.93;;;2.30;;
6590;SDS011;3331;47.978;7.662;2022-11-20T09:19:09;3.40;;;2.37;;
6590;SDS011;3331;47.978;7.662;2022-11-20T09:21:40;4.33;;;2.47;;
6590;SDS011;3331;47.978;7.662;2022-11-20T09:24:07;2.13;;;1.90;;
6590;SDS011;3331;47.978;7.662;2022-11-20T09:26:33;3.87;;;1.90;;
6590;SDS011;3331;47.978;7.662;2022-11-20T09:29:02;2.47;;;1.70;;
6590;SDS011;3331;47.978;7.662;2022-11-20T09:31:39;1.93;;;1.77;;
6590;SDS011;3331;47.978;7.662;2022-11-20T09:34:06;2.90;;;1.90;;
6590;SDS011;3331;47.978;7.662;2022-11-20T09:36:45;3.13;;;2.40;;
6590;SDS011;3331;47.978;7.662;2022-11-20T09:39:16;4.80;;;1.80;;
6590;SDS011;3331;47.978;7.662;2022-11-20T09:41:51;2.10;;;1.80;;
6590;SDS011;3331;47.978;7.662;2022-11-20T09:44:27;3.43;;;2.10;;
6590;SDS011;3331;47.978;7.662;2022-11-20T09:47:07;5.27;;;2.23;;
6590;SDS011;3331;47.978;7.662;2022-11-20T09:49:36;3.97;;;2.40;;
6590;SDS011;3331;47.978;7.662;2022-11-20T09:52:17;2.50;;;2.13;;
6590;SDS011;3331;47.978;7.662;2022-11-20T09:54:55;6.97;;;2.53;;
6590;SDS011;3331;47.978;7.662;2022-11-20T09:57:42;4.87;;;2.13;;
6590;SDS011;3331;47.978;7.662;2022-11-20T10:00:16;3.37;;;2.50;;
6590;SDS011;3331;47.978;7.662;2022-11-20T10:02:47;5.80;;;2.43;;
6590;SDS011;3331;47.978;7.662;2022-11-20T10:05:27;2.20;;;1.77;;
6590;SDS011;3331;47.978;7.662;2022-11-20T10:08:01;4.10;;;2.13;;
6590;SDS011;3331;47.978;7.662;2022-11-20T10:10:34;2.90;;;2.30;;
6590;SDS011;3331;47.978;7.662;2022-11-20T10:13:13;3.67;;;2.40;;
6590;SDS011;3331;47.978;7.662;2022-11-20T10:15:54;2.10;;;1.70;;
6590;SDS011;3331;47.978;7.662;2022-11-20T10:18:38;2.87;;;2.17;;
6590;SDS011;3331;47.978;7.662;2022-11-20T10:21:10;2.07;;;1.70;;
6590;SDS011;3331;47.978;7.662;2022-11-20T10:23:56;1.93;;;1.73;;
6590;SDS011;3331;47.978;7.662;2022-11-20T10:26:29;1.93;;;1.73;;
6590;SDS011;3331;47.978;7.662;2022-11-20T10:29:07;3.33;;;2.13;;
6590;SDS011;3331;47.978;7.662;2022-11-20T10:31:39;3.93;;;2.07;;
6590;SDS011;3331;47.978;7.662;2022-11-20T10:34:16;2.50;;;2.13;;
6590;SDS011;3331;47.978;7.662;2022-11-20T10:36:59;2.90;;;1.90;;
6590;SDS011;3331;47.978;7.662;2022-11-20T10:39:44;3.00;;;2.23;;
6590;SDS011;3331;47.978;7.662;2022-11-20T10:42:26;2.97;;;1.90;;
6590;SDS011;3331;47.978;7.662;2022-11-20T10:45:02;5.57;;;1.97;;
6590;SDS011;3331;47.978;7.662;2022-11-20T10:47:33;2.57;;;1.97;;
6590;SDS011;3331;47.978;7.662;2022-11-20T10:50:05;3.07;;;1.90;;
6590;SDS011;3331;47.978;7.662;2022-11-20T10:52:39;2.37;;;1.87;;
6590;SDS011;3331;47.978;7.662;2022-11-20T10:55:16;4.60;;;2.17;;
6590;SDS011;3331;47.978;7.662;2022-11-20T10:57:52;2.33;;;2.10;;
6590;SDS011;3331;47.978;7.662;2022-11-20T11:00:20;2.57;;;2.10;;
6590;SDS011;3331;47.978;7.662;2022-11-20T11:02:48;3.47;;;2.40;;
6590;SDS011;3331;47.978;7.662;2022-11-20T11:05:27;1.67;;;1.40;;
6590;SDS011;3331;47.978;7.662;2022-11-20T11:08:14;4.20;;;2.13;;
6590;SDS011;3331;47.978;7.662;2022-11-20T11:10:50;3.40;;;2.00;;
6590;SDS011;3331;47.978;7.662;2022-11-20T11:13:24;3.17;;;1.83;;
6590;SDS011;3331;47.978;7.662;2022-11-20T11:15:57;3.53;;;1.87;;
6590;SDS011;3331;47.978;7.662;2022-11-20T11:18:49;2.50;;;1.53;;
6590;SDS011;3331;47.978;7.662;2022-11-20T11:21:20;2.17;;;1.60;;
6590;SDS011;3331;47.978;7.662;2022-11-20T11:24:00;2.00;;;1.80;;
6590;SDS011;3331;47.978;7.662;2022-11-20T11:26:28;1.67;;;1.50;;
6590;SDS011;3331;47.978;7.662;2022-11-20T11:29:00;6.40;;;3.93;;
6590;SDS011;3331;47.978;7.662;2022-11-20T11:31:29;16.50;;;8.63;;
6590;SDS011;3331;47.978;7.662;2022-11-20T11:34:04;4.33;;;3.53;;
6590;SDS011;3331;47.978;7.662;2022-11-20T11:36:33;3.53;;;2.57;;
6590;SDS011;3331;47.978;7.662;2022-11-20T11:39:12;2.80;;;2.03;;
6590;SDS011;3331;47.978;7.662;2022-11-20T11:44:31;2.47;;;1.60;;
6590;SDS011;3331;47.978;7.662;2022-11-20T11:47:19;6.17;;;2.80;;
6590;SDS011;3331;47.978;7.662;2022-11-20T11:49:51;6.30;;;2.37;;
6590;SDS011;3331;47.978;7.662;2022-11-20T11:52:38;2.07;;;1.87;;
6590;SDS011;3331;47.978;7.662;2022-11-20T11:55:16;2.73;;;2.30;;
6590;SDS011;3331;47.978;7.662;2022-11-20T11:57:45;6.60;;;2.83;;
6590;SDS011;3331;47.978;7.662;2022-11-20T12:00:16;2.73;;;1.40;;
6590;SDS011;3331;47.978;7.662;2022-11-20T12:02:49;3.03;;;1.50;;
6590;SDS011;3331;47.978;7.662;2022-11-20T12:05:34;2.13;;;1.60;;
6590;SDS011;3331;47.978;7.662;2022-11-20T12:08:03;2.20;;;1.30;;
6590;SDS011;3331;47.978;7.662;2022-11-20T12:10:37;1.33;;;1.23;;
6590;SDS011;3331;47.978;7.662;2022-11-20T12:13:14;2.20;;;1.37;;
6590;SDS011;3331;47.978;7.662;2022-11-20T12:15:46;1.60;;;1.50;;
6590;SDS011;3331;47.978;7.662;2022-11-20T12:18:23;4.47;;;1.57;;
6590;SDS011;3331;47.978;7.662;2022-11-20T12:20:55;3.20;;;1.70;;
6590;SDS011;3331;47.978;7.662;2022-11-20T12:23:24;3.50;;;1.40;;
6590;SDS011;3331;47.978;7.662;2022-11-20T12:26:10;2.83;;;1.30;;
6590;SDS011;3331;47.978;7.662;2022-11-20T12:28:57;2.20;;;0.93;;
6590;SDS011;3331;47.978;7.662;2022-11-20T12:31:42;3.00;;;1.30;;
6590;SDS011;3331;47.978;7.662;2022-11-20T12:34:20;1.50;;;1.10;;
6590;SDS011;3331;47.978;7.662;2022-11-20T12:37:06;1.87;;;1.40;;
6590;SDS011;3331;47.978;7.662;2022-11-20T12:39:39;1.60;;;1.50;;
6590;SDS011;3331;47.978;7.662;2022-11-20T12:42:20;1.33;;;1.23;;
6590;SDS011;3331;47.978;7.662;2022-11-20T12:48:41;1.47;;;1.13;;
6590;SDS011;3331;47.978;7.662;2022-11-20T12:51:24;4.33;;;1.37;;
6590;SDS011;3331;47.978;7.662;2022-11-20T12:54:00;1.37;;;1.20;;
6590;SDS011;3331;47.978;7.662;2022-11-20T12:56:40;1.90;;;1.30;;
6590;SDS011;3331;47.978;7.662;2022-11-20T12:59:20;6.63;;;1.50;;
6590;SDS011;3331;47.978;7.662;2022-11-20T13:02:02;1.57;;;1.30;;
6590;SDS011;3331;47.978;7.662;2022-11-20T13:04:47;3.43;;;1.70;;
6590;SDS011;3331;47.978;7.662;2022-11-20T13:07:20;3.13;;;1.73;;
6590;SDS011;3331;47.978;7.662;2022-11-20T13:09:47;2.57;;;1.60;;
6590;SDS011;3331;47.978;7.662;2022-11-20T13:12:22;1.70;;;1.13;;
6590;SDS011;3331;47.978;7.662;2022-11-20T13:14:51;3.70;;;1.23;;
6590;SDS011;3331;47.978;7.662;2022-11-20T13:17:23;2.27;;;1.20;;
6590;SDS011;3331;47.978;7.662;2022-11-20T13:19:52;2.07;;;1.10;;
6590;SDS011;3331;47.978;7.662;2022-11-20T13:22:24;1.63;;;1.23;;
6590;SDS011;3331;47.978;7.662;2022-11-20T13:24:51;4.47;;;1.50;;
6590;SDS011;3331;47.978;7.662;2022-11-20T13:27:29;3.27;;;1.20;;
6590;SDS011;3331;47.978;7.662;2022-11-20T13:30:12;1.47;;;1.20;;
6590;SDS011;3331;47.978;7.662;2022-11-20T13:32:51;3.37;;;1.23;;
6590;SDS011;3331;47.978;7.662;2022-11-20T13:35:31;1.57;;;1.00;;
6590;SDS011;3331;47.978;7.662;2022-11-20T13:38:04;2.13;;;1.23;;
6590;SDS011;3331;47.978;7.662;2022-11-20T13:40:35;2.87;;;1.30;;
6590;SDS011;3331;47.978;7.662;2022-11-20T13:43:14;1.93;;;1.23;;
6590;SDS011;3331;47.978;7.662;2022-11-20T13:45:56;1.53;;;1.17;;
6590;SDS011;3331;47.978;7.662;2022-11-20T13:48:31;1.30;;;1.00;;
6590;SDS011;3331;47.978;7.662;2022-11-20T13:51:15;1.73;;;1.10;;
6590;SDS011;3331;47.978;7.662;2022-11-20T13:56:45;2.27;;;1.37;;
6590;SDS011;3331;47.978;7.662;2022-11-20T13:59:24;1.17;;;1.03;;
6590;SDS011;3331;47.978;7.662;2022-11-20T14:01:58;3.77;;;1.40;;
6590;SDS011;3331;47.978;7.662;2022-11-20T14:04:26;3.00;;;1.50;;
6590;SDS011;3331;47.978;7.662;2022-11-20T14:07:02;3.43;;;1.23;;
6590;SDS011;3331;47.978;7.662;2022-11-20T14:09:32;3.30;;;1.40;;
6590;SDS011;3331;47.978;7.662;2022-11-20T14:12:17;1.43;;;1.10;;
6590;SDS011;3331;47.978;7.662;2022-11-20T14:14:54;1.30;;;1.13;;
6590;SDS011;3331;47.978;7.662;2022-11-20T14:17:30;1.27;;;1.10;;
6590;SDS011;3331;47.978;7.662;2022-11-20T14:20:02;1.30;;;1.00;;
6590;SDS011;3331;47.978;7.662;2022-11-20T14:22:47;4.50;;;1.40;;
6590;SDS011;3331;47.978;7.662;2022-11-20T14:25:18;2.43;;;1.37;;
6590;SDS011;3331;47.978;7.662;2022-11-20T14:27:50;2.20;;;1.47;;
6590;SDS011;3331;47.978;7.662;2022-11-20T14:30:26;3.17;;;1.63;;
6590;SDS011;3331;47.978;7.662;2022-11-20T14:33:01;1.67;;;1.40;;
6590;SDS011;3331;47.978;7.662;2022-11-20T14:41:15;2.00;;;1.30;;
6590;SDS011;3331;47.978;7.662;2022-11-20T14:43:47;2.47;;;1.50;;
6590;SDS011;3331;47.978;7.662;2022-11-20T14:46:39;1.50;;;1.40;;
6590;SDS011;3331;47.978;7.662;2022-11-20T14:49:05;2.53;;;1.73;;
6590;SDS011;3331;47.978;7.662;2022-11-20T14:51:32;3.13;;;1.60;;
6590;SDS011;3331;47.978;7.662;2022-11-20T14:54:14;4.40;;;1.67;;
6590;SDS011;3331;47.978;7.662;2022-11-20T14:56:54;2.10;;;1.67;;
6590;SDS011;3331;47.978;7.662;2022-11-20T14:59:30;3.70;;;1.67;;
6590;SDS011;3331;47.978;7.662;2022-11-20T15:04:56;1.90;;;1.70;;
6590;SDS011;3331;47.978;7.662;2022-11-20T15:07:24;2.60;;;1.37;;
6590;SDS011;3331;47.978;7.662;2022-11-20T15:10:03;2.03;;;1.60;;
6590;SDS011;3331;47.978;7.662;2022-11-20T15:12:30;3.20;;;2.20;;
6590;SDS011;3331;47.978;7.662;2022-11-20T15:14:56;1.60;;;1.50;;
6590;SDS011;3331;47.978;7.662;2022-11-20T15:17:23;2.63;;;1.63;;
6590;SDS011;3331;47.978;7.662;2022-11-20T15:19:49;1.40;;;1.30;;
6590;SDS011;3331;47.978;7.662;2022-11-20T15:22:16;2.93;;;2.10;;
6590;SDS011;3331;47.978;7.662;2022-11-20T15:24:42;1.60;;;1.50;;
6590;SDS011;3331;47.978;7.662;2022-11-20T15:27:10;2.93;;;1.80;;
6590;SDS011;3331;47.978;7.662;2022-11-20T15:29:37;5.67;;;2.30;;
6590;SDS011;3331;47.978;7.662;2022-11-20T15:32:03;6.10;;;2.90;;
6590;SDS011;3331;47.978;7.662;2022-11-20T15:34:30;4.37;;;2.70;;
6590;SDS011;3331;47.978;7.662;2022-11-20T15:36:56;2.60;;;1.90;;
6590;SDS011;3331;47.978;7.662;2022-11-20T15:39:22;1.80;;;1.30;;
6590;SDS011;3331;47.978;7.662;2022-11-20T15:41:49;1.80;;;1.30;;
6590;SDS011;3331;47.978;7.662;2022-11-20T15:44:16;4.13;;;1.57;;
6590;SDS011;3331;47.978;7.662;2022-11-20T15:46:43;2.07;;;1.63;;
6590;SDS011;3331;47.978;7.662;2022-11-20T15:49:12;2.60;;;1.77;;
6590;SDS011;3331;47.978;7.662;2022-11-20T15:51:39;3.50;;;1.40;;
6590;SDS011;3331;47.978;7.662;2022-11-20T15:54:08;2.47;;;1.43;;
6590;SDS011;3331;47.978;7.662;2022-11-20T15:56:35;2.63;;;1.20;;
6590;SDS011;3331;47.978;7.662;2022-11-20T15:59:02;3.00;;;1.27;;
6590;SDS011;3331;47.978;7.662;2022-11-20T16:01:30;2.03;;;1.30;;
6590;SDS011;3331;47.978;7.662;2022-11-20T16:03:56;2.47;;;1.50;;
6590;SDS011;3331;47.978;7.662;2022-11-20T16:06:23;3.57;;;1.50;;
6590;SDS011;3331;47.978;7.662;2022-11-20T16:08:49;3.70;;;1.60;;
6590;SDS011;3331;47.978;7.662;2022-11-20T16:11:16;2.10;;;1.80;;
6590;SDS011;3331;47.978;7.662;2022-11-20T16:13:43;2.03;;;1.50;;
6590;SDS011;3331;47.978;7.662;2022-11-20T16:16:28;2.27;;;1.70;;
6590;SDS011;3331;47.978;7.662;2022-11-20T16:18:57;1.70;;;1.50;;
6590;SDS011;3331;47.978;7.662;2022-11-20T16:21:23;4.17;;;1.87;;
6590;SDS011;3331;47.978;7.662;2022-11-20T16:23:56;4.03;;;2.00;;
6590;SDS011;3331;47.978;7.662;2022-11-20T16:26:23;1.57;;;1.43;;
6590;SDS011;3331;47.978;7.662;2022-11-20T16:28:49;2.53;;;1.50;;
6590;SDS011;3331;47.978;7.662;2022-11-20T16:31:16;3.03;;;1.40;;
6590;SDS011;3331;47.978;7.662;2022-11-20T16:33:44;1.33;;;1.23;;
6590;SDS011;3331;47.978;7.662;2022-11-20T16:36:19;2.30;;;1.47;;
6590;SDS011;3331;47.978;7.662;2022-11-20T16:38:45;1.93;;;1.27;;
6590;SDS011;3331;47.978;7.662;2022-11-20T16:41:12;1.63;;;1.30;;
6590;SDS011;3331;47.978;7.662;2022-11-20T16:43:43;4.07;;;1.40;;
6590;SDS011;3331;47.978;7.662;2022-11-20T16:46:10;1.67;;;1.23;;
6590;SDS011;3331;47.978;7.662;2022-11-20T16:48:37;1.13;;;1.10;;
6590;SDS011;3331;47.978;7.662;2022-11-20T16:51:03;3.43;;;1.20;;
6590;SDS011;3331;47.978;7.662;2022-11-20T16:53:34;2.43;;;1.30;;
6590;SDS011;3331;47.978;7.662;2022-11-20T16:56:07;1.53;;;1.10;;
6590;SDS011;3331;47.978;7.662;2022-11-20T16:58:33;0.83;;;0.83;;
6590;SDS011;3331;47.978;7.662;2022-11-20T17:01:04;1.53;;;1.40;;
6590;SDS011;3331;47.978;7.662;2022-11-20T17:03:30;1.50;;;1.20;;
6590;SDS011;3331;47.978;7.662;2022-11-20T17:05:56;1.00;;;0.97;;
6590;SDS011;3331;47.978;7.662;2022-11-20T17:08:23;1.63;;;1.03;;
6590;SDS011;3331;47.978;7.662;2022-11-20T17:10:50;2.20;;;1.30;;
6590;SDS011;3331;47.978;7.662;2022-11-20T17:13:17;3.07;;;1.30;;
6590;SDS011;3331;47.978;7.662;2022-11-20T17:15:43;2.43;;;1.27;;
6590;SDS011;3331;47.978;7.662;2022-11-20T17:18:09;1.50;;;1.40;;
6590;SDS011;3331;47.978;7.662;2022-11-20T17:20:37;1.87;;;1.10;;
6590;SDS011;3331;47.978;7.662;2022-11-20T17:23:03;1.90;;;1.50;;
6590;SDS011;3331;47.978;7.662;2022-11-20T17:25:31;1.43;;;1.03;;
6590;SDS011;3331;47.978;7.662;2022-11-20T17:27:58;3.77;;;1.60;;
6590;SDS011;3331;47.978;7.662;2022-11-20T17:30:25;3.77;;;1.63;;
6590;SDS011;3331;47.978;7.662;2022-11-20T17:32:51;2.53;;;1.80;;
6590;SDS011;3331;47.978;7.662;2022-11-20T17:35:17;2.63;;;1.80;;
6590;SDS011;3331;47.978;7.662;2022-11-20T17:37:44;2.27;;;1.90;;
6590;SDS011;3331;47.978;7.662;2022-11-20T17:40:10;1.00;;;1.00;;
6590;SDS011;3331;47.978;7.662;2022-11-20T17:42:37;2.03;;;1.60;;
6590;SDS011;3331;47.978;7.662;2022-11-20T17:45:05;3.00;;;1.80;;
6590;SDS011;3331;47.978;7.662;2022-11-20T17:47:33;0.87;;;0.83;;
6590;SDS011;3331;47.978;7.662;2022-11-20T17:50:00;1.67;;;1.10;;
6590;SDS011;3331;47.978;7.662;2022-11-20T17:52:26;0.83;;;0.80;;
6590;SDS011;3331;47.978;7.662;2022-11-20T17:54:53;2.73;;;1.10;;
6590;SDS011;3331;47.978;7.662;2022-11-20T17:57:20;4.00;;;1.97;;
6590;SDS011;3331;47.978;7.662;2022-11-20T18:00:05;2.87;;;1.30;;
6590;SDS011;3331;47.978;7.662;2022-11-20T18:02:34;2.30;;;0.80;;
6590;SDS011;3331;47.978;7.662;2022-11-20T18:05:00;2.03;;;0.77;;
6590;SDS011;3331;47.978;7.662;2022-11-20T18:07:27;2.10;;;0.93;;
6590;SDS011;3331;47.978;7.662;2022-11-20T18:09:53;1.30;;;0.80;;
6590;SDS011;3331;47.978;7.662;2022-11-20T18:12:20;1.23;;;1.00;;
6590;SDS011;3331;47.978;7.662;2022-11-20T18:14:46;1.80;;;1.10;;
6590;SDS011;3331;47.978;7.662;2022-11-20T18:17:14;0.90;;;0.90;;
6590;SDS011;3331;47.978;7.662;2022-11-20T18:19:41;2.57;;;0.97;;
6590;SDS011;3331;47.978;7.662;2022-11-20T18:22:08;1.47;;;1.07;;
6590;SDS011;3331;47.978;7.662;2022-11-20T18:24:35;2.37;;;1.33;;
6590;SDS011;3331;47.978;7.662;2022-11-20T18:27:04;1.17;;;1.07;;
6590;SDS011;3331;47.978;7.662;2022-11-20T18:29:31;1.20;;;1.10;;
6590;SDS011;3331;47.978;7.662;2022-11-20T18:31:58;1.47;;;1.20;;
6590;SDS011;3331;47.978;7.662;2022-11-20T18:34:26;2.27;;;1.30;;
6590;SDS011;3331;47.978;7.662;2022-11-20T18:36:52;1.63;;;0.90;;
6590;SDS011;3331;47.978;7.662;2022-11-20T18:39:19;1.00;;;0.90;;
6590;SDS011;3331;47.978;7.662;2022-11-20T18:41:45;1.10;;;1.00;;
6590;SDS011;3331;47.978;7.662;2022-11-20T18:44:30;1.00;;;0.90;;
6590;SDS011;3331;47.978;7.662;2022-11-20T18:47:14;3.60;;;1.30;;
6590;SDS011;3331;47.978;7.662;2022-11-20T18:49:43;1.10;;;1.00;;
6590;SDS011;3331;47.978;7.662;2022-11-20T18:52:10;2.67;;;1.30;;
6590;SDS011;3331;47.978;7.662;2022-11-20T18:54:36;1.63;;;1.33;;
6590;SDS011;3331;47.978;7.662;2022-11-20T18:57:03;2.53;;;1.10;;
6590;SDS011;3331;47.978;7.662;2022-11-20T18:59:30;2.30;;;1.40;;
6590;SDS011;3331;47.978;7.662;2022-11-20T19:01:56;1.27;;;1.10;;
6590;SDS011;3331;47.978;7.662;2022-11-20T19:04:22;1.90;;;1.60;;
6590;SDS011;3331;47.978;7.662;2022-11-20T19:06:50;1.93;;;1.10;;
6590;SDS011;3331;47.978;7.662;2022-11-20T19:09:20;2.27;;;1.33;;
6590;SDS011;3331;47.978;7.662;2022-11-20T19:11:47;2.27;;;1.07;;
6590;SDS011;3331;47.978;7.662;2022-11-20T19:14:13;0.93;;;0.90;;
6590;SDS011;3331;47.978;7.662;2022-11-20T19:16:40;3.80;;;1.00;;
6590;SDS011;3331;47.978;7.662;2022-11-20T19:19:07;2.80;;;0.97;;
6590;SDS011;3331;47.978;7.662;2022-11-20T19:21:34;1.13;;;1.00;;
6590;SDS011;3331;47.978;7.662;2022-11-20T19:24:02;1.33;;;1.10;;
6590;SDS011;3331;47.978;7.662;2022-11-20T19:26:29;1.10;;;0.77;;
6590;SDS011;3331;47.978;7.662;2022-11-20T19:28:55;1.03;;;0.93;;
6590;SDS011;3331;47.978;7.662;2022-11-20T19:31:23;2.17;;;1.03;;
6590;SDS011;3331;47.978;7.662;2022-11-20T19:33:51;0.60;;;0.60;;
6590;SDS011;3331;47.978;7.662;2022-11-20T19:36:18;1.07;;;0.80;;
6590;SDS011;3331;47.978;7.662;2022-11-20T19:38:45;1.17;;;1.07;;
6590;SDS011;3331;47.978;7.662;2022-11-20T19:41:14;0.77;;;0.50;;
6590;SDS011;3331;47.978;7.662;2022-11-20T19:43:40;1.30;;;0.90;;
6590;SDS011;3331;47.978;7.662;2022-11-20T19:46:07;0.97;;;0.83;;
6590;SDS011;3331;47.978;7.662;2022-11-20T19:48:34;1.00;;;0.73;;
6590;SDS011;3331;47.978;7.662;2022-11-20T19:51:06;1.03;;;0.80;;
6590;SDS011;3331;47.978;7.662;2022-11-20T19:53:33;2.90;;;0.87;;
6590;SDS011;3331;47.978;7.662;2022-11-20T19:55:59;0.63;;;0.63;;
6590;SDS011;3331;47.978;7.662;2022-11-20T19:58:27;1.03;;;0.73;;
6590;SDS011;3331;47.978;7.662;2022-11-20T20:00:54;0.43;;;0.43;;
6590;SDS011;3331;47.978;7.662;2022-11-20T20:03:20;0.83;;;0.83;;
6590;SDS011;3331;47.978;7.662;2022-11-20T20:05:47;1.23;;;1.00;;
6590;SDS011;3331;47.978;7.662;2022-11-20T20:08:13;0.70;;;0.70;;
6590;SDS011;3331;47.978;7.662;2022-11-20T20:10:40;0.60;;;0.60;;
6590;SDS011;3331;47.978;7.662;2022-11-20T20:13:06;1.23;;;0.80;;
6590;SDS011;3331;47.978;7.662;2022-11-20T20:15:36;1.00;;;0.90;;
6590;SDS011;3331;47.978;7.662;2022-11-20T20:18:04;1.77;;;0.90;;
6590;SDS011;3331;47.978;7.662;2022-11-20T20:20:30;0.60;;;0.60;;
6590;SDS011;3331;47.978;7.662;2022-11-20T20:22:57;1.20;;;1.10;;
6590;SDS011;3331;47.978;7.662;2022-11-20T20:25:23;0.73;;;0.73;;
6590;SDS011;3331;47.978;7.662;2022-11-20T20:27:49;1.17;;;0.63;;
6590;SDS011;3331;47.978;7.662;2022-11-20T20:30:16;0.83;;;0.80;;
6590;SDS011;3331;47.978;7.662;2022-11-20T20:32:43;1.57;;;0.77;;
6590;SDS011;3331;47.978;7.662;2022-11-20T20:35:10;0.93;;;0.80;;
6590;SDS011;3331;47.978;7.662;2022-11-20T20:37:36;1.33;;;0.80;;
6590;SDS011;3331;47.978;7.662;2022-11-20T20:40:03;1.83;;;1.10;;
6590;SDS011;3331;47.978;7.662;2022-11-20T20:42:29;1.37;;;0.83;;
6590;SDS011;3331;47.978;7.662;2022-11-20T20:44:56;1.00;;;0.90;;
6590;SDS011;3331;47.978;7.662;2022-11-20T20:47:32;0.53;;;0.53;;
6590;SDS011;3331;47.978;7.662;2022-11-20T20:50:00;0.60;;;0.60;;
6590;SDS011;3331;47.978;7.662;2022-11-20T20:52:26;3.60;;;1.00;;
6590;SDS011;3331;47.978;7.662;2022-11-20T20:54:53;0.50;;;0.50;;
6590;SDS011;3331;47.978;7.662;2022-11-20T20:57:19;0.97;;;0.60;;
6590;SDS011;3331;47.978;7.662;2022-11-20T20:59:46;1.03;;;0.80;;
6590;SDS011;3331;47.978;7.662;2022-11-20T21:02:13;1.00;;;0.70;;
6590;SDS011;3331;47.978;7.662;2022-11-20T21:04:39;0.73;;;0.73;;
6590;SDS011;3331;47.978;7.662;2022-11-20T21:07:07;0.97;;;0.63;;
6590;SDS011;3331;47.978;7.662;2022-11-20T21:09:34;1.03;;;0.67;;
6590;SDS011;3331;47.978;7.662;2022-11-20T21:12:01;0.50;;;0.50;;
6590;SDS011;3331;47.978;7.662;2022-11-20T21:14:27;0.97;;;0.83;;
6590;SDS011;3331;47.978;7.662;2022-11-20T21:16:54;1.53;;;0.63;;
6590;SDS011;3331;47.978;7.662;2022-11-20T21:19:20;1.00;;;0.90;;
6590;SDS011;3331;47.978;7.662;2022-11-20T21:21:47;1.83;;;0.90;;
6590;SDS011;3331;47.978;7.662;2022-11-20T21:24:26;0.80;;;0.80;;
6590;SDS011;3331;47.978;7.662;2022-11-20T21:26:52;2.80;;;1.10;;